createdAt,value
2018-06-17T00:01:10.288Z,2.83
2018-06-17T00:03:40.527Z,2.43
2018-06-17T00:06:09.607Z,2.57
2018-06-17T00:08:39.569Z,2.70
2018-06-17T00:11:09.675Z,3.13
2018-06-17T00:13:38.780Z,2.53
2018-06-17T00:16:08.586Z,2.90
2018-06-17T00:18:37.761Z,2.90
2018-06-17T00:21:07.671Z,2.93
2018-06-17T00:23:37.648Z,2.90
2018-06-17T00:26:07.422Z,2.40
2018-06-17T00:28:36.472Z,2.50
2018-06-17T00:31:06.987Z,2.53
2018-06-17T00:33:36.315Z,2.63
2018-06-17T00:36:05.766Z,2.60
2018-06-17T00:38:34.944Z,2.93
2018-06-17T00:41:04.129Z,2.57
2018-06-17T00:43:34.524Z,2.83
2018-06-17T00:46:03.879Z,2.57
2018-06-17T00:48:33.485Z,2.93
2018-06-17T00:51:02.522Z,2.60
2018-06-17T00:53:32.485Z,3.20
2018-06-17T00:56:03.566Z,2.50
2018-06-17T00:58:32.798Z,3.10
2018-06-17T01:01:02.012Z,3.03
2018-06-17T01:03:31.206Z,2.70
2018-06-17T01:06:00.287Z,2.80
2018-06-17T01:08:30.273Z,2.80
2018-06-17T01:10:59.323Z,2.90
2018-06-17T01:13:28.459Z,2.60
2018-06-17T01:15:57.489Z,2.93
2018-06-17T01:18:26.519Z,2.70
2018-06-17T01:20:55.831Z,2.57
2018-06-17T01:23:24.950Z,2.53
2018-06-17T01:25:54.967Z,2.83
2018-06-17T01:28:27.430Z,2.67
2018-06-17T01:30:56.472Z,2.63
2018-06-17T01:33:27.688Z,2.43
2018-06-17T01:35:56.831Z,3.23
2018-06-17T01:38:27.374Z,2.60
2018-06-17T01:40:58.286Z,2.60
2018-06-17T01:43:27.735Z,2.80
2018-06-17T01:45:57.119Z,2.40
2018-06-17T01:48:26.239Z,2.53
2018-06-17T01:50:56.922Z,2.90
2018-06-17T01:53:26.257Z,2.70
2018-06-17T01:55:56.392Z,2.70
2018-06-17T01:58:26.436Z,2.67
2018-06-17T02:00:56.539Z,2.80
2018-06-17T02:03:32.358Z,2.93
2018-06-17T02:06:06.731Z,3.40
2018-06-17T02:08:42.075Z,3.10
2018-06-17T02:11:16.690Z,2.90
2018-06-17T02:13:48.549Z,2.77
2018-06-17T02:16:18.580Z,2.97
2018-06-17T02:18:48.600Z,2.70
2018-06-17T02:21:20.078Z,2.67
2018-06-17T02:23:51.029Z,2.60
2018-06-17T02:26:21.033Z,2.77
2018-06-17T02:28:50.667Z,2.60
2018-06-17T02:31:19.774Z,2.73
2018-06-17T02:33:48.965Z,2.80
2018-06-17T02:36:18.156Z,2.80
2018-06-17T02:38:47.185Z,2.77
2018-06-17T02:41:17.682Z,2.80
2018-06-17T02:43:47.069Z,2.80
2018-06-17T02:46:21.566Z,2.93
2018-06-17T02:48:57.252Z,2.80
2018-06-17T02:51:33.125Z,2.70
2018-06-17T02:54:07.568Z,3.00
2018-06-17T02:56:36.586Z,3.00
2018-06-17T02:59:05.879Z,2.60
2018-06-17T03:01:35.067Z,2.80
2018-06-17T03:04:04.529Z,2.70
2018-06-17T03:06:33.560Z,2.90
2018-06-17T03:09:03.300Z,2.70
2018-06-17T03:11:33.705Z,3.30
2018-06-17T03:14:02.985Z,3.57
2018-06-17T03:16:32.352Z,3.10
2018-06-17T03:19:01.377Z,3.27
2018-06-17T03:21:30.791Z,3.10
2018-06-17T03:24:00.532Z,3.10
2018-06-17T03:26:36.313Z,3.23
2018-06-17T03:29:10.627Z,3.20
2018-06-17T03:31:45.049Z,3.60
2018-06-17T03:34:14.357Z,3.40
2018-06-17T03:36:46.971Z,3.50
2018-06-17T03:39:17.636Z,2.97
2018-06-17T03:41:47.018Z,3.30
2018-06-17T03:44:16.143Z,3.30
2018-06-17T03:46:46.413Z,3.30
2018-06-17T03:49:15.133Z,3.03
2018-06-17T03:51:45.011Z,3.57
2018-06-17T03:54:14.241Z,3.10
2018-06-17T03:56:44.480Z,3.77
2018-06-17T03:59:13.671Z,3.20
2018-06-17T04:01:44.574Z,3.70
2018-06-17T04:04:13.745Z,3.20
2018-06-17T04:06:42.934Z,2.97
2018-06-17T04:09:13.011Z,3.43
2018-06-17T04:11:43.277Z,3.07
2018-06-17T04:14:13.017Z,3.13
2018-06-17T04:16:42.454Z,2.90
2018-06-17T04:19:11.487Z,3.23
2018-06-17T04:21:40.716Z,3.00
2018-06-17T04:24:11.038Z,2.93
2018-06-17T04:26:40.244Z,3.03
2018-06-17T04:29:11.385Z,3.30
2018-06-17T04:31:41.175Z,3.00
2018-06-17T04:34:10.161Z,3.17
2018-06-17T04:36:40.136Z,3.10
2018-06-17T04:39:10.220Z,3.40
2018-06-17T04:41:40.104Z,3.33
2018-06-17T04:44:09.202Z,3.33
2018-06-17T04:46:38.869Z,2.93
2018-06-17T04:49:08.244Z,3.50
2018-06-17T04:51:37.732Z,3.43
2018-06-17T04:54:07.609Z,3.20
2018-06-17T04:56:36.834Z,3.67
2018-06-17T04:59:06.021Z,3.37
2018-06-17T05:01:35.656Z,3.13
2018-06-17T05:04:04.779Z,3.60
2018-06-17T05:06:33.940Z,3.13
2018-06-17T05:09:04.269Z,3.40
2018-06-17T05:11:33.783Z,3.10
2018-06-17T05:14:03.034Z,3.43
2018-06-17T05:16:32.246Z,3.40
2018-06-17T05:19:02.235Z,3.47
2018-06-17T05:21:31.442Z,3.07
2018-06-17T05:24:01.535Z,3.37
2018-06-17T05:26:30.644Z,3.23
2018-06-17T05:29:01.535Z,3.10
2018-06-17T05:31:31.519Z,3.10
2018-06-17T05:34:02.396Z,2.83
2018-06-17T05:36:31.541Z,2.80
2018-06-17T05:39:01.043Z,3.10
2018-06-17T05:41:30.084Z,3.20
2018-06-17T05:43:59.231Z,3.30
2018-06-17T05:46:28.390Z,2.50
2018-06-17T05:48:58.504Z,2.70
2018-06-17T05:51:32.044Z,3.00
2018-06-17T05:54:01.229Z,2.53
2018-06-17T05:56:30.417Z,3.17
2018-06-17T05:58:59.606Z,3.15
2018-06-17T06:01:28.660Z,2.80
2018-06-17T06:03:58.306Z,2.77
2018-06-17T06:06:27.575Z,3.27
2018-06-17T06:08:57.602Z,3.10
2018-06-17T06:11:26.892Z,2.97
2018-06-17T06:13:56.032Z,2.80
2018-06-17T06:16:25.496Z,2.70
2018-06-17T06:18:55.019Z,3.10
2018-06-17T06:21:24.516Z,3.00
2018-06-17T06:23:54.662Z,2.57
2018-06-17T06:26:24.418Z,3.10
2018-06-17T06:28:53.602Z,2.80
2018-06-17T06:31:23.829Z,2.47
2018-06-17T06:33:53.743Z,2.70
2018-06-17T06:36:23.826Z,2.80
2018-06-17T06:38:53.043Z,3.40
2018-06-17T06:41:22.188Z,2.67
2018-06-17T06:43:52.320Z,2.70
2018-06-17T06:46:23.485Z,3.00
2018-06-17T06:48:53.797Z,2.50
2018-06-17T06:51:24.952Z,2.60
2018-06-17T06:53:54.648Z,2.80
2018-06-17T06:56:24.820Z,2.27
2018-06-17T06:58:55.402Z,2.67
2018-06-17T07:01:36.370Z,2.50
2018-06-17T07:04:16.632Z,2.67
2018-06-17T07:06:57.947Z,2.87
2018-06-17T07:09:38.367Z,2.80
2018-06-17T07:12:07.686Z,2.50
2018-06-17T07:14:37.050Z,2.60
2018-06-17T07:17:19.201Z,2.53
2018-06-17T07:19:48.350Z,2.60
2018-06-17T07:22:17.557Z,2.97
2018-06-17T07:24:47.600Z,2.47
2018-06-17T07:27:23.051Z,2.50
2018-06-17T07:29:52.963Z,2.80
2018-06-17T07:32:22.130Z,3.00
2018-06-17T07:34:51.386Z,2.67
2018-06-17T07:37:21.813Z,2.27
2018-06-17T07:41:00.159Z,2.13
2018-06-17T07:43:30.040Z,2.60
2018-06-17T07:46:00.244Z,2.60
2018-06-17T07:49:48.280Z,2.57
2018-06-17T07:52:29.886Z,2.40
2018-06-17T07:54:59.979Z,2.60
2018-06-17T07:57:30.753Z,2.53
2018-06-17T08:00:00.685Z,2.60
2018-06-17T08:02:29.872Z,2.20
2018-06-17T08:04:59.095Z,2.30
2018-06-17T08:07:28.486Z,2.40
2018-06-17T08:09:57.564Z,2.40
2018-06-17T08:12:26.699Z,2.43
2018-06-17T08:14:56.814Z,2.20
2018-06-17T08:17:25.980Z,2.63
2018-06-17T08:19:55.446Z,2.30
2018-06-17T08:22:24.750Z,2.57
2018-06-17T08:24:54.811Z,2.20
2018-06-17T08:27:26.507Z,2.43
2018-06-17T08:29:55.579Z,2.30
2018-06-17T08:32:25.838Z,2.20
2018-06-17T08:34:55.831Z,2.23
2018-06-17T08:37:24.988Z,2.27
2018-06-17T08:39:55.523Z,2.33
2018-06-17T08:42:24.630Z,2.00
2018-06-17T08:44:55.260Z,2.17
2018-06-17T08:47:24.608Z,2.30
2018-06-17T08:49:53.645Z,2.37
2018-06-17T08:52:22.799Z,2.10
2018-06-17T08:54:52.135Z,2.87
2018-06-17T08:57:21.289Z,2.40
2018-06-17T08:59:50.459Z,2.30
2018-06-17T09:02:19.651Z,2.03
2018-06-17T09:04:48.951Z,2.37
2018-06-17T09:07:18.241Z,1.70
2018-06-17T09:09:47.363Z,2.20
2018-06-17T09:12:17.651Z,2.30
2018-06-17T09:14:53.101Z,2.00
2018-06-17T09:17:22.353Z,1.90
2018-06-17T09:19:51.539Z,2.07
2018-06-17T09:22:20.585Z,2.20
2018-06-17T09:24:49.630Z,1.87
2018-06-17T09:27:18.851Z,1.97
2018-06-17T09:29:48.022Z,2.07
2018-06-17T09:32:18.350Z,1.80
2018-06-17T09:34:48.652Z,2.03
2018-06-17T09:37:17.900Z,2.13
2018-06-17T09:39:47.094Z,1.83
2018-06-17T09:42:16.175Z,2.20
2018-06-17T09:44:45.475Z,2.13
2018-06-17T09:47:14.631Z,2.33
2018-06-17T09:49:44.834Z,1.90
2018-06-17T09:52:16.075Z,1.90
2018-06-17T09:54:45.205Z,2.33
2018-06-17T09:57:16.513Z,2.20
2018-06-17T09:59:45.842Z,2.07
2018-06-17T10:02:15.103Z,2.10
2018-06-17T10:04:46.331Z,1.90
2018-06-17T10:07:15.526Z,1.90
2018-06-17T10:10:52.565Z,2.00
2018-06-17T10:13:23.793Z,2.30
2018-06-17T10:15:55.347Z,1.90
2018-06-17T10:18:25.127Z,2.00
2018-06-17T10:20:55.383Z,2.03
2018-06-17T10:23:25.454Z,2.10
2018-06-17T10:25:55.690Z,1.97
2018-06-17T10:28:26.322Z,2.10
2018-06-17T10:30:59.278Z,2.20
2018-06-17T10:33:28.380Z,1.70
2018-06-17T10:35:59.894Z,1.90
2018-06-17T10:38:30.049Z,1.87
2018-06-17T10:40:59.939Z,2.20
2018-06-17T10:43:32.237Z,2.10
2018-06-17T10:46:02.303Z,2.10
2018-06-17T10:48:32.069Z,2.20
2018-06-17T10:51:02.380Z,2.20
2018-06-17T10:53:31.448Z,2.00
2018-06-17T10:56:03.577Z,2.03
2018-06-17T10:58:36.185Z,2.03
2018-06-17T11:01:06.032Z,1.90
2018-06-17T11:03:35.100Z,2.00
2018-06-17T11:06:05.062Z,2.30
2018-06-17T11:08:35.193Z,2.00
2018-06-17T11:11:06.508Z,2.20
2018-06-17T11:13:37.081Z,2.00
2018-06-17T11:16:06.989Z,2.20
2018-06-17T11:18:36.654Z,2.00
2018-06-17T11:21:06.648Z,2.03
2018-06-17T11:23:35.824Z,2.20
2018-06-17T11:26:07.994Z,2.00
2018-06-17T11:28:38.196Z,2.30
2018-06-17T11:31:07.498Z,2.10
2018-06-17T11:33:37.425Z,1.80
2018-06-17T11:36:06.541Z,2.00
2018-06-17T11:38:36.631Z,1.90
2018-06-17T11:41:07.889Z,1.60
2018-06-17T11:43:37.255Z,2.03
2018-06-17T11:46:07.835Z,2.10
2018-06-17T11:48:37.216Z,2.10
2018-06-17T11:51:06.312Z,1.63
2018-06-17T11:53:38.114Z,2.00
2018-06-17T11:56:07.326Z,2.50
2018-06-17T11:58:36.476Z,2.27
2018-06-17T12:01:05.631Z,2.10
2018-06-17T12:03:34.841Z,2.10
2018-06-17T12:06:04.056Z,2.20
2018-06-17T12:08:33.204Z,2.10
2018-06-17T12:11:03.608Z,2.30
2018-06-17T12:13:32.804Z,2.20
2018-06-17T12:16:02.533Z,2.50
2018-06-17T12:18:34.207Z,1.90
2018-06-17T12:21:03.391Z,2.27
2018-06-17T12:23:32.589Z,2.13
2018-06-17T12:26:02.993Z,2.60
2018-06-17T12:28:32.304Z,2.50
2018-06-17T12:31:02.471Z,2.23
2018-06-17T12:33:31.958Z,2.40
2018-06-17T12:36:01.678Z,2.40
2018-06-17T12:38:30.788Z,2.27
2018-06-17T12:41:00.000Z,2.17
2018-06-17T12:43:29.184Z,2.10
2018-06-17T12:45:59.074Z,1.87
2018-06-17T12:48:28.322Z,2.50
2018-06-17T12:50:57.415Z,2.10
2018-06-17T12:53:26.484Z,2.10
2018-06-17T12:55:56.882Z,2.20
2018-06-17T12:58:27.159Z,2.20
2018-06-17T13:00:58.504Z,2.30
2018-06-17T13:03:28.756Z,2.10
2018-06-17T13:05:57.561Z,2.30
2018-06-17T13:08:26.646Z,2.47
2018-06-17T13:10:55.894Z,2.30
2018-06-17T13:13:24.942Z,1.93
2018-06-17T13:15:54.078Z,2.00
2018-06-17T13:18:23.862Z,2.50
2018-06-17T13:20:53.021Z,2.00
2018-06-17T13:23:23.063Z,2.20
2018-06-17T13:25:52.209Z,2.30
2018-06-17T13:28:21.407Z,2.13
2018-06-17T13:30:52.359Z,2.50
2018-06-17T13:33:22.623Z,2.40
2018-06-17T13:35:52.586Z,2.40
2018-06-17T13:38:21.822Z,2.40
2018-06-17T13:40:51.189Z,2.20
2018-06-17T13:43:20.454Z,2.40
2018-06-17T13:45:49.538Z,2.50
2018-06-17T13:48:19.807Z,2.23
2018-06-17T13:50:49.091Z,2.60
2018-06-17T13:53:18.125Z,2.43
2018-06-17T13:55:49.115Z,2.20
2018-06-17T13:58:19.711Z,2.13
2018-06-17T14:00:50.041Z,2.33
2018-06-17T14:03:20.664Z,2.20
2018-06-17T14:05:50.580Z,2.43
2018-06-17T14:08:19.761Z,2.13
2018-06-17T14:10:49.990Z,2.20
2018-06-17T14:13:20.221Z,2.40
2018-06-17T14:15:49.550Z,2.23
2018-06-17T14:18:18.884Z,2.57
2018-06-17T14:20:48.372Z,2.07
2018-06-17T14:23:18.401Z,2.30
2018-06-17T14:25:49.033Z,2.00
2018-06-17T14:28:18.114Z,2.50
2018-06-17T14:30:47.318Z,2.30
2018-06-17T14:33:16.525Z,2.23
2018-06-17T14:35:45.683Z,2.20
2018-06-17T14:38:15.998Z,2.07
2018-06-17T14:40:50.445Z,2.00
2018-06-17T14:43:24.817Z,2.13
2018-06-17T14:45:57.319Z,2.10
2018-06-17T14:48:31.668Z,1.97
2018-06-17T14:51:05.873Z,2.00
2018-06-17T14:53:35.049Z,2.37
2018-06-17T14:56:09.954Z,2.00
2018-06-17T14:58:39.190Z,1.87
2018-06-17T15:01:09.535Z,2.17
2018-06-17T15:03:38.750Z,2.23
2018-06-17T15:06:09.305Z,2.00
2018-06-17T15:08:39.601Z,2.20
2018-06-17T15:11:09.656Z,2.37
2018-06-17T15:13:39.441Z,2.33
2018-06-17T15:16:08.618Z,2.30
2018-06-17T15:18:38.665Z,2.13
2018-06-17T15:21:07.829Z,2.33
2018-06-17T15:23:37.056Z,2.90
2018-06-17T15:26:07.049Z,2.73
2018-06-17T15:28:36.462Z,2.60
2018-06-17T15:31:11.034Z,2.20
2018-06-17T15:33:45.475Z,2.20
2018-06-17T15:36:19.950Z,2.10
2018-06-17T15:38:55.147Z,2.17
2018-06-17T15:41:27.546Z,1.87
2018-06-17T15:43:58.721Z,2.30
2018-06-17T15:46:29.671Z,2.43
2018-06-17T15:48:59.036Z,2.67
2018-06-17T15:51:29.282Z,2.67
2018-06-17T15:53:58.553Z,3.40
2018-06-17T15:56:27.726Z,2.47
2018-06-17T15:58:58.357Z,2.27
2018-06-17T16:01:28.896Z,2.30
2018-06-17T16:04:00.282Z,2.30
2018-06-17T16:06:29.894Z,1.90
2018-06-17T16:08:59.169Z,2.20
2018-06-17T16:11:28.552Z,2.17
2018-06-17T16:14:02.932Z,1.93
2018-06-17T16:16:39.383Z,2.00
2018-06-17T16:20:15.320Z,2.33
2018-06-17T16:22:45.344Z,2.33
2018-06-17T16:25:14.578Z,2.67
2018-06-17T16:27:43.849Z,2.43
2018-06-17T16:30:15.035Z,2.10
2018-06-17T16:32:44.240Z,2.20
2018-06-17T16:35:13.355Z,2.10
2018-06-17T16:37:42.717Z,2.13
2018-06-17T16:40:14.356Z,2.30
2018-06-17T16:42:43.258Z,2.00
2018-06-17T16:45:12.323Z,2.23
2018-06-17T16:47:42.453Z,2.30
2018-06-17T16:50:12.529Z,2.27
2018-06-17T16:53:45.028Z,2.30
2018-06-17T16:56:19.720Z,1.80
2018-06-17T16:58:54.347Z,1.93
2018-06-17T17:01:24.381Z,2.20
2018-06-17T17:03:53.844Z,2.27
2018-06-17T17:06:23.742Z,2.00
2018-06-17T17:08:54.138Z,2.00
2018-06-17T17:11:23.338Z,2.33
2018-06-17T17:13:52.646Z,1.90
2018-06-17T17:16:21.762Z,2.10
2018-06-17T17:18:51.928Z,1.90
2018-06-17T17:21:21.064Z,2.03
2018-06-17T17:23:51.446Z,1.87
2018-06-17T17:26:20.781Z,2.00
2018-06-17T17:28:50.768Z,1.63
2018-06-17T17:31:22.000Z,1.87
2018-06-17T17:33:56.349Z,1.70
2018-06-17T17:36:31.728Z,2.03
2018-06-17T17:39:06.495Z,1.60
2018-06-17T17:41:35.838Z,1.90
2018-06-17T17:44:07.450Z,1.80
2018-06-17T17:46:42.057Z,1.87
2018-06-17T17:49:12.289Z,1.60
2018-06-17T17:51:44.100Z,1.90
2018-06-17T17:54:15.326Z,2.00
2018-06-17T17:56:46.008Z,2.10
2018-06-17T17:59:16.123Z,1.80
2018-06-17T18:01:45.354Z,2.07
2018-06-17T18:04:15.521Z,1.70
2018-06-17T18:06:45.593Z,2.00
2018-06-17T18:09:15.612Z,1.80
2018-06-17T18:11:44.708Z,1.73
2018-06-17T18:14:13.976Z,1.93
2018-06-17T18:16:42.755Z,2.20
2018-06-17T18:19:13.585Z,1.80
2018-06-17T18:21:43.517Z,1.83
2018-06-17T18:24:13.554Z,2.00
2018-06-17T18:26:48.100Z,2.10
2018-06-17T18:29:22.369Z,1.97
2018-06-17T18:31:56.916Z,1.73
2018-06-17T18:34:31.476Z,1.80
2018-06-17T18:37:00.907Z,2.20
2018-06-17T18:39:31.158Z,1.83
2018-06-17T18:42:00.347Z,1.97
2018-06-17T18:44:29.530Z,2.10
2018-06-17T18:46:58.827Z,2.20
2018-06-17T18:49:29.248Z,2.40
2018-06-17T18:51:58.405Z,2.27
2018-06-17T18:54:27.836Z,2.57
2018-06-17T18:56:57.511Z,2.20
2018-06-17T18:59:27.564Z,2.33
2018-06-17T19:01:57.533Z,2.17
2018-06-17T19:04:27.811Z,2.60
2018-06-17T19:06:57.056Z,2.30
2018-06-17T19:09:31.717Z,2.63
2018-06-17T19:12:06.337Z,2.20
2018-06-17T19:14:41.772Z,2.60
2018-06-17T19:17:17.208Z,2.30
2018-06-17T19:19:46.433Z,2.33
2018-06-17T19:22:15.618Z,2.70
2018-06-17T19:24:45.774Z,2.40
2018-06-17T19:27:16.234Z,2.60
2018-06-17T19:29:47.250Z,2.30
2018-06-17T19:32:16.468Z,2.87
2018-06-17T19:34:47.761Z,2.90
2018-06-17T19:37:17.876Z,3.00
2018-06-17T19:39:47.828Z,2.50
2018-06-17T19:42:16.933Z,2.80
2018-06-17T19:44:46.225Z,2.50
2018-06-17T19:47:15.317Z,2.63
2018-06-17T19:49:49.992Z,3.10
2018-06-17T19:52:24.326Z,2.70
2018-06-17T19:55:58.608Z,3.17
2018-06-17T19:58:33.947Z,2.40
2018-06-17T20:01:04.437Z,2.40
2018-06-17T20:03:33.772Z,2.83
2018-06-17T20:06:03.946Z,2.77
2018-06-17T20:08:32.997Z,2.50
2018-06-17T20:11:02.282Z,2.50
2018-06-17T20:13:31.426Z,2.60
2018-06-17T20:16:01.570Z,2.67
2018-06-17T20:18:30.916Z,2.50
2018-06-17T20:21:00.048Z,2.60
2018-06-17T20:23:29.090Z,2.80
2018-06-17T20:25:58.234Z,2.30
2018-06-17T20:28:30.082Z,2.70
2018-06-17T20:31:05.823Z,2.77
2018-06-17T20:33:41.310Z,2.80
2018-06-17T20:36:17.000Z,2.80
2018-06-17T20:38:52.420Z,3.00
2018-06-17T20:41:26.931Z,3.00
2018-06-17T20:43:56.408Z,2.57
2018-06-17T20:46:25.290Z,2.90
2018-06-17T20:48:54.417Z,2.57
2018-06-17T20:51:25.014Z,2.50
2018-06-17T20:53:55.754Z,2.63
2018-06-17T20:56:25.068Z,2.70
2018-06-17T20:58:56.164Z,3.07
2018-06-17T21:01:25.359Z,2.77
2018-06-17T21:03:57.842Z,3.00
2018-06-17T21:06:26.925Z,2.73
2018-06-17T21:08:56.393Z,2.93
2018-06-17T21:11:25.556Z,2.50
2018-06-17T21:13:54.714Z,2.60
2018-06-17T21:16:23.967Z,3.10
2018-06-17T21:18:59.329Z,2.60
2018-06-17T21:21:33.803Z,2.50
2018-06-17T21:24:09.984Z,2.80
2018-06-17T21:26:46.156Z,2.50
2018-06-17T21:29:16.363Z,2.80
2018-06-17T21:31:46.383Z,2.87
2018-06-17T21:34:15.629Z,2.47
2018-06-17T21:36:45.902Z,2.63
2018-06-17T21:39:15.983Z,2.93
2018-06-17T21:41:46.015Z,2.70
2018-06-17T21:44:15.197Z,2.80
2018-06-17T21:46:45.562Z,2.50
2018-06-17T21:49:16.450Z,2.50
2018-06-17T21:51:45.612Z,2.60
2018-06-17T21:54:16.527Z,2.60
2018-06-17T21:56:47.373Z,2.67
2018-06-17T21:59:16.636Z,2.80
2018-06-17T22:01:45.781Z,2.80
2018-06-17T22:04:21.125Z,3.10
2018-06-17T22:06:50.369Z,2.60
2018-06-17T22:09:24.833Z,2.80
2018-06-17T22:11:59.366Z,2.60
2018-06-17T22:14:33.683Z,2.93
2018-06-17T22:17:08.209Z,2.80
2018-06-17T22:19:37.541Z,3.00
2018-06-17T22:22:06.647Z,2.90
2018-06-17T22:24:37.231Z,2.70
2018-06-17T22:27:06.428Z,3.10
2018-06-17T22:29:35.503Z,3.30
2018-06-17T22:32:09.410Z,3.30
2018-06-17T22:34:39.198Z,2.57
2018-06-17T22:37:08.628Z,3.00
2018-06-17T22:39:38.937Z,2.93
2018-06-17T22:42:08.863Z,3.17
2018-06-17T22:44:38.385Z,2.67
2018-06-17T22:47:07.668Z,2.93
2018-06-17T22:49:36.865Z,3.20
2018-06-17T22:52:07.087Z,2.77
2018-06-17T22:54:47.432Z,2.70
2018-06-17T22:57:22.883Z,3.00
2018-06-17T22:59:57.248Z,3.17
2018-06-17T23:02:31.505Z,3.30
2018-06-17T23:05:06.266Z,2.73
2018-06-17T23:07:41.572Z,2.83
2018-06-17T23:10:11.819Z,3.00
2018-06-17T23:12:41.796Z,2.70
2018-06-17T23:15:11.766Z,3.23
2018-06-17T23:17:40.887Z,2.77
2018-06-17T23:20:10.914Z,3.07
2018-06-17T23:22:42.124Z,2.87
2018-06-17T23:25:12.411Z,2.80
2018-06-17T23:27:42.556Z,3.13
2018-06-17T23:30:13.343Z,3.03
2018-06-17T23:32:42.532Z,3.40
2018-06-17T23:35:11.662Z,3.40
2018-06-17T23:37:41.709Z,3.00
2018-06-17T23:40:10.774Z,3.03
2018-06-17T23:42:40.089Z,2.80
2018-06-17T23:45:09.497Z,3.40
2018-06-17T23:47:44.018Z,3.03
2018-06-17T23:50:19.371Z,3.07
2018-06-17T23:52:53.786Z,3.00
2018-06-17T23:55:28.380Z,3.10
2018-06-17T23:57:58.733Z,3.40
